createdAt,value
2017-05-07T00:00:39.556Z,1005.15
2017-05-07T00:01:39.532Z,1005.15
2017-05-07T00:02:34.502Z,1005.20
2017-05-07T00:03:33.992Z,1005.17
2017-05-07T00:04:33.921Z,1005.15
2017-05-07T00:05:28.918Z,1005.14
2017-05-07T00:06:23.454Z,1005.17
2017-05-07T00:07:11.938Z,1005.19
2017-05-07T00:07:59.511Z,1005.19
2017-05-07T00:08:48.594Z,1005.20
2017-05-07T00:09:53.957Z,1005.16
2017-05-07T00:10:47.953Z,1005.14
2017-05-07T00:11:42.893Z,1005.15
2017-05-07T00:12:37.403Z,1005.14
2017-05-07T00:13:36.931Z,1005.14
2017-05-07T00:14:36.832Z,1005.15
2017-05-07T00:15:36.816Z,1005.15
2017-05-07T00:16:37.773Z,1005.17
2017-05-07T00:17:37.334Z,1005.20
2017-05-07T00:18:32.326Z,1005.22
2017-05-07T00:19:31.858Z,1005.25
2017-05-07T00:20:25.758Z,1005.24
2017-05-07T00:21:20.664Z,1005.25
2017-05-07T00:22:20.240Z,1005.24
2017-05-07T00:23:16.147Z,1005.22
2017-05-07T00:24:21.145Z,1005.21
2017-05-07T00:25:15.638Z,1005.21
2017-05-07T00:26:10.164Z,1005.23
2017-05-07T00:27:04.660Z,1005.24
2017-05-07T00:28:04.247Z,1005.23
2017-05-07T00:28:59.234Z,1005.20
2017-05-07T00:29:58.713Z,1005.23
2017-05-07T00:30:54.640Z,1005.22
2017-05-07T00:31:47.644Z,1005.23
2017-05-07T00:32:47.165Z,1005.23
2017-05-07T00:33:41.093Z,1005.23
2017-05-07T00:34:41.022Z,1005.18
2017-05-07T00:35:41.016Z,1005.15
2017-05-07T00:36:40.937Z,1005.16
2017-05-07T00:37:35.941Z,1005.14
2017-05-07T00:38:35.441Z,1005.12
2017-05-07T00:39:35.421Z,1005.12
2017-05-07T00:40:29.383Z,1005.11
2017-05-07T00:41:17.304Z,1005.14
2017-05-07T00:42:05.292Z,1005.12
2017-05-07T00:42:53.268Z,1005.16
2017-05-07T00:43:41.255Z,1005.14
2017-05-07T00:44:36.196Z,1005.16
2017-05-07T00:45:41.670Z,1005.14
2017-05-07T00:46:41.657Z,1005.17
2017-05-07T00:47:41.961Z,1005.18
2017-05-07T00:48:41.544Z,1005.19
2017-05-07T00:49:41.869Z,1005.17
2017-05-07T00:50:41.449Z,1005.17
2017-05-07T00:51:35.436Z,1005.24
2017-05-07T00:52:29.344Z,1005.20
2017-05-07T00:53:29.364Z,1005.23
2017-05-07T00:54:24.281Z,1005.21
2017-05-07T00:55:18.814Z,1005.26
2017-05-07T00:56:18.299Z,1005.20
2017-05-07T00:57:18.306Z,1005.19
2017-05-07T00:58:12.286Z,1005.24
2017-05-07T00:59:12.586Z,1005.22
2017-05-07T01:00:06.142Z,1005.22
2017-05-07T01:01:00.089Z,1005.24
2017-05-07T01:01:55.050Z,1005.26
2017-05-07T01:02:54.587Z,1005.23
2017-05-07T01:03:43.550Z,1005.22
2017-05-07T01:04:49.204Z,1005.22
2017-05-07T01:05:44.052Z,1005.24
2017-05-07T01:06:43.562Z,1005.25
2017-05-07T01:07:43.510Z,1005.24
2017-05-07T01:08:37.465Z,1005.23
2017-05-07T01:09:32.433Z,1005.25
2017-05-07T01:10:26.968Z,1005.23
2017-05-07T01:11:21.457Z,1005.21
2017-05-07T01:12:16.012Z,1005.20
2017-05-07T01:13:15.531Z,1005.19
2017-05-07T01:14:10.429Z,1005.19
2017-05-07T01:15:10.019Z,1005.20
2017-05-07T01:16:04.001Z,1005.20
2017-05-07T01:16:58.931Z,1005.20
2017-05-07T01:17:58.438Z,1005.23
2017-05-07T01:18:52.388Z,1005.25
2017-05-07T01:19:53.351Z,1005.20
2017-05-07T01:20:47.882Z,1005.19
2017-05-07T01:21:41.465Z,1005.22
2017-05-07T01:22:30.351Z,1005.23
2017-05-07T01:23:23.864Z,1005.22
2017-05-07T01:24:17.830Z,1005.25
2017-05-07T01:25:17.828Z,1005.24
2017-05-07T01:26:12.723Z,1005.22
2017-05-07T01:27:12.243Z,1005.20
2017-05-07T01:28:06.232Z,1005.29
2017-05-07T01:29:07.636Z,1005.23
2017-05-07T01:30:06.646Z,1005.22
2017-05-07T01:31:06.626Z,1005.25
2017-05-07T01:32:01.617Z,1005.24
2017-05-07T01:32:56.173Z,1005.22
2017-05-07T01:33:50.646Z,1005.25
2017-05-07T01:34:44.144Z,1005.26
2017-05-07T01:35:44.131Z,1005.24
2017-05-07T01:36:38.080Z,1005.25
2017-05-07T01:37:38.064Z,1005.29
2017-05-07T01:38:33.050Z,1005.26
2017-05-07T01:39:38.546Z,1005.28
2017-05-07T01:40:32.553Z,1005.25
2017-05-07T01:41:32.438Z,1005.28
2017-05-07T01:42:21.429Z,1005.28
2017-05-07T01:43:20.913Z,1005.31
2017-05-07T01:44:21.378Z,1005.37
2017-05-07T01:45:14.833Z,1005.32
2017-05-07T01:46:08.807Z,1005.31
2017-05-07T01:47:08.752Z,1005.34
2017-05-07T01:48:03.735Z,1005.35
2017-05-07T01:48:58.236Z,1005.42
2017-05-07T01:49:52.755Z,1005.41
2017-05-07T01:50:52.287Z,1005.41
2017-05-07T01:51:46.247Z,1005.40
2017-05-07T01:52:46.167Z,1005.44
2017-05-07T01:53:40.161Z,1005.42
2017-05-07T01:54:46.029Z,1005.47
2017-05-07T01:55:40.440Z,1005.43
2017-05-07T01:56:40.071Z,1005.45
2017-05-07T01:57:39.960Z,1005.46
2017-05-07T01:58:39.909Z,1005.49
2017-05-07T01:59:33.903Z,1005.46
2017-05-07T02:00:33.819Z,1005.46
2017-05-07T02:01:27.845Z,1005.46
2017-05-07T02:02:22.788Z,1005.48
2017-05-07T02:03:17.253Z,1005.44
2017-05-07T02:04:05.834Z,1005.44
2017-05-07T02:04:59.366Z,1005.42
2017-05-07T02:05:54.303Z,1005.42
2017-05-07T02:06:53.866Z,1005.44
2017-05-07T02:07:53.780Z,1005.41
2017-05-07T02:08:47.722Z,1005.42
2017-05-07T02:09:43.101Z,1005.46
2017-05-07T02:10:42.187Z,1005.40
2017-05-07T02:11:42.151Z,1005.40
2017-05-07T02:12:36.230Z,1005.37
2017-05-07T02:13:36.045Z,1005.40
2017-05-07T02:14:30.041Z,1005.39
2017-05-07T02:15:30.956Z,1005.38
2017-05-07T02:16:30.527Z,1005.35
2017-05-07T02:17:30.474Z,1005.34
2017-05-07T02:18:25.396Z,1005.35
2017-05-07T02:19:19.959Z,1005.37
2017-05-07T02:20:14.469Z,1005.31
2017-05-07T02:21:14.003Z,1005.30
2017-05-07T02:22:07.945Z,1005.32
2017-05-07T02:23:07.904Z,1005.33
2017-05-07T02:24:02.873Z,1005.30
2017-05-07T02:25:02.367Z,1005.28
2017-05-07T02:25:57.345Z,1005.28
2017-05-07T02:26:51.846Z,1005.31
2017-05-07T02:27:51.362Z,1005.31
2017-05-07T02:28:45.321Z,1005.30
2017-05-07T02:29:39.348Z,1005.35
2017-05-07T02:30:33.250Z,1005.33
2017-05-07T02:31:33.157Z,1005.31
2017-05-07T02:32:22.141Z,1005.33
2017-05-07T02:33:16.726Z,1005.32
2017-05-07T02:34:16.158Z,1005.36
2017-05-07T02:35:16.159Z,1005.34
2017-05-07T02:36:10.104Z,1005.35
2017-05-07T02:37:04.082Z,1005.33
2017-05-07T02:38:04.027Z,1005.31
2017-05-07T02:38:59.027Z,1005.32
2017-05-07T02:39:53.549Z,1005.31
2017-05-07T02:40:48.060Z,1005.33
2017-05-07T02:41:47.576Z,1005.30
2017-05-07T02:42:42.543Z,1005.29
2017-05-07T02:43:42.019Z,1005.31
2017-05-07T02:44:42.502Z,1005.31
2017-05-07T02:45:36.939Z,1005.34
2017-05-07T02:46:36.523Z,1005.31
2017-05-07T02:47:36.439Z,1005.34
2017-05-07T02:48:36.336Z,1005.34
2017-05-07T02:49:30.328Z,1005.34
2017-05-07T02:50:30.259Z,1005.35
2017-05-07T02:51:25.228Z,1005.37
2017-05-07T02:52:25.109Z,1005.37
2017-05-07T02:53:24.708Z,1005.42
2017-05-07T02:54:19.653Z,1005.40
2017-05-07T02:55:19.164Z,1005.41
2017-05-07T02:56:08.125Z,1005.42
2017-05-07T02:57:07.676Z,1005.43
2017-05-07T02:58:07.661Z,1005.44
2017-05-07T02:59:02.766Z,1005.45
2017-05-07T03:00:02.152Z,1005.43
2017-05-07T03:00:56.061Z,1005.45
2017-05-07T03:01:51.075Z,1005.43
2017-05-07T03:02:50.502Z,1005.44
2017-05-07T03:03:50.543Z,1005.45
2017-05-07T03:04:44.785Z,1005.45
2017-05-07T03:05:39.439Z,1005.42
2017-05-07T03:06:38.942Z,1005.45
2017-05-07T03:07:33.905Z,1005.44
2017-05-07T03:08:39.406Z,1005.41
2017-05-07T03:09:39.343Z,1005.44
2017-05-07T03:10:33.311Z,1005.43
2017-05-07T03:11:27.247Z,1005.45
2017-05-07T03:12:21.222Z,1005.44
2017-05-07T03:13:15.195Z,1005.46
2017-05-07T03:14:15.130Z,1005.48
2017-05-07T03:15:09.079Z,1005.43
2017-05-07T03:16:09.053Z,1005.40
2017-05-07T03:17:04.301Z,1005.39
2017-05-07T03:17:58.518Z,1005.41
2017-05-07T03:18:58.045Z,1005.37
2017-05-07T03:19:59.010Z,1005.38
2017-05-07T03:20:54.045Z,1005.39
2017-05-07T03:21:48.096Z,1005.37
2017-05-07T03:22:42.544Z,1005.33
2017-05-07T03:23:42.131Z,1005.33
2017-05-07T03:24:37.016Z,1005.37
2017-05-07T03:25:36.562Z,1005.36
2017-05-07T03:26:30.526Z,1005.32
2017-05-07T03:27:24.528Z,1005.32
2017-05-07T03:28:18.472Z,1005.35
2017-05-07T03:29:18.445Z,1005.32
2017-05-07T03:30:12.387Z,1005.34
2017-05-07T03:31:12.333Z,1005.34
2017-05-07T03:32:07.258Z,1005.30
2017-05-07T03:33:01.840Z,1005.30
2017-05-07T03:34:01.924Z,1005.36
2017-05-07T03:34:55.313Z,1005.41
2017-05-07T03:35:50.245Z,1005.39
2017-05-07T03:36:49.743Z,1005.41
2017-05-07T03:37:38.752Z,1005.41
2017-05-07T03:38:32.321Z,1005.39
2017-05-07T03:39:21.215Z,1005.42
2017-05-07T03:40:14.718Z,1005.38
2017-05-07T03:41:08.718Z,1005.38
2017-05-07T03:42:02.640Z,1005.36
2017-05-07T03:43:02.622Z,1005.39
2017-05-07T03:44:02.992Z,1005.40
2017-05-07T03:44:57.508Z,1005.38
2017-05-07T03:45:51.992Z,1005.40
2017-05-07T03:46:46.523Z,1005.40
2017-05-07T03:47:46.072Z,1005.37
2017-05-07T03:48:41.035Z,1005.37
2017-05-07T03:49:40.546Z,1005.39
2017-05-07T03:50:35.526Z,1005.38
2017-05-07T03:51:24.061Z,1005.37
2017-05-07T03:52:18.532Z,1005.41
2017-05-07T03:53:13.054Z,1005.42
2017-05-07T03:54:06.656Z,1005.46
2017-05-07T03:55:01.546Z,1005.43
2017-05-07T03:55:56.083Z,1005.42
2017-05-07T03:56:49.629Z,1005.45
2017-05-07T03:57:43.555Z,1005.43
2017-05-07T03:58:44.530Z,1005.40
2017-05-07T03:59:45.029Z,1005.40
2017-05-07T04:00:39.533Z,1005.36
2017-05-07T04:01:33.062Z,1005.42
2017-05-07T04:02:22.027Z,1005.43
2017-05-07T04:03:15.567Z,1005.43
2017-05-07T04:04:03.511Z,1005.40
2017-05-07T04:04:51.567Z,1005.43
2017-05-07T04:05:45.441Z,1005.42
2017-05-07T04:06:34.428Z,1005.43
2017-05-07T04:07:39.954Z,1005.41
2017-05-07T04:08:33.888Z,1005.43
2017-05-07T04:09:39.871Z,1005.43
2017-05-07T04:10:33.826Z,1005.41
2017-05-07T04:11:28.780Z,1005.39
2017-05-07T04:12:23.290Z,1005.38
2017-05-07T04:13:17.851Z,1005.45
2017-05-07T04:14:12.353Z,1005.38
2017-05-07T04:15:11.827Z,1005.41
2017-05-07T04:16:05.847Z,1005.43
2017-05-07T04:17:05.749Z,1005.43
2017-05-07T04:18:00.701Z,1005.46
2017-05-07T04:19:00.713Z,1005.44
2017-05-07T04:19:49.214Z,1005.46
2017-05-07T04:20:36.743Z,1005.50
2017-05-07T04:21:25.756Z,1005.50
2017-05-07T04:22:19.512Z,1005.55
2017-05-07T04:23:20.209Z,1005.56
2017-05-07T04:24:19.994Z,1005.56
2017-05-07T04:25:13.634Z,1005.58
2017-05-07T04:26:07.630Z,1005.59
2017-05-07T04:27:01.779Z,1005.58
2017-05-07T04:27:50.545Z,1005.55
2017-05-07T04:28:45.046Z,1005.57
2017-05-07T04:29:44.601Z,1005.58
2017-05-07T04:30:44.533Z,1005.56
2017-05-07T04:31:27.515Z,1005.59
2017-05-07T04:32:27.022Z,1005.62
2017-05-07T04:33:15.162Z,1005.59
2017-05-07T04:34:04.114Z,1005.61
2017-05-07T04:34:58.481Z,1005.63
2017-05-07T04:35:53.030Z,1005.61
2017-05-07T04:36:46.614Z,1005.64
2017-05-07T04:37:35.533Z,1005.62
2017-05-07T04:38:30.213Z,1005.59
2017-05-07T04:39:23.580Z,1005.55
2017-05-07T04:40:06.834Z,1005.58
2017-05-07T04:40:55.461Z,1005.60
2017-05-07T04:41:48.561Z,1005.61
2017-05-07T04:42:37.584Z,1005.59
2017-05-07T04:43:26.200Z,1005.60
2017-05-07T04:44:25.578Z,1005.61
2017-05-07T04:45:19.560Z,1005.62
2017-05-07T04:46:14.530Z,1005.59
2017-05-07T04:47:13.989Z,1005.62
2017-05-07T04:48:09.083Z,1005.58
2017-05-07T04:49:08.490Z,1005.57
2017-05-07T04:49:57.433Z,1005.63
2017-05-07T04:50:51.983Z,1005.67
2017-05-07T04:51:45.520Z,1005.71
2017-05-07T04:52:39.775Z,1005.71
2017-05-07T04:53:39.438Z,1005.72
2017-05-07T04:54:34.850Z,1005.73
2017-05-07T04:55:28.923Z,1005.71
2017-05-07T04:56:23.417Z,1005.74
2017-05-07T04:57:22.939Z,1005.71
2017-05-07T04:58:17.971Z,1005.76
2017-05-07T04:59:17.482Z,1005.78
2017-05-07T05:00:06.397Z,1005.79
2017-05-07T05:00:55.340Z,1005.74
2017-05-07T05:01:43.438Z,1005.78
2017-05-07T05:02:43.300Z,1005.81
2017-05-07T05:03:36.974Z,1005.80
2017-05-07T05:04:19.936Z,1005.83
2017-05-07T05:05:14.445Z,1005.83
2017-05-07T05:06:08.055Z,1005.84
2017-05-07T05:07:01.930Z,1005.86
2017-05-07T05:07:49.921Z,1005.86
2017-05-07T05:08:43.916Z,1005.85
2017-05-07T05:09:38.028Z,1005.83
2017-05-07T05:10:31.737Z,1005.87
2017-05-07T05:11:20.711Z,1005.88
2017-05-07T05:12:14.270Z,1005.85
2017-05-07T05:13:03.225Z,1005.91
2017-05-07T05:14:03.202Z,1005.95
2017-05-07T05:14:50.946Z,1005.95
2017-05-07T05:15:39.913Z,1005.96
2017-05-07T05:16:33.600Z,1005.96
2017-05-07T05:17:21.143Z,1005.97
2017-05-07T05:18:16.112Z,1005.97
2017-05-07T05:19:09.665Z,1005.99
2017-05-07T05:19:52.759Z,1006.03
2017-05-07T05:20:40.115Z,1006.04
2017-05-07T05:21:34.138Z,1006.05
2017-05-07T05:22:29.031Z,1006.09
2017-05-07T05:23:22.566Z,1006.05
2017-05-07T05:24:16.538Z,1006.07
2017-05-07T05:25:04.564Z,1006.07
2017-05-07T05:25:52.486Z,1006.08
2017-05-07T05:26:46.497Z,1006.05
2017-05-07T05:27:40.430Z,1006.08
2017-05-07T05:28:29.340Z,1006.11
2017-05-07T05:29:22.897Z,1006.10
2017-05-07T05:30:11.924Z,1006.13
2017-05-07T05:31:05.672Z,1006.14
2017-05-07T05:31:59.341Z,1006.16
2017-05-07T05:32:53.592Z,1006.11
2017-05-07T05:33:41.284Z,1006.15
2017-05-07T05:34:36.689Z,1006.18
2017-05-07T05:35:30.770Z,1006.20
2017-05-07T05:36:24.354Z,1006.22
2017-05-07T05:37:18.279Z,1006.20
2017-05-07T05:38:06.242Z,1006.23
2017-05-07T05:38:55.171Z,1006.25
2017-05-07T05:39:48.740Z,1006.29
2017-05-07T05:40:36.726Z,1006.28
2017-05-07T05:41:36.663Z,1006.34
2017-05-07T05:42:30.634Z,1006.31
2017-05-07T05:43:19.527Z,1006.35
2017-05-07T05:44:08.145Z,1006.37
2017-05-07T05:45:07.635Z,1006.40
2017-05-07T05:45:56.643Z,1006.36
2017-05-07T05:46:50.171Z,1006.35
2017-05-07T05:47:39.190Z,1006.40
2017-05-07T05:48:26.603Z,1006.38
2017-05-07T05:49:20.584Z,1006.44
2017-05-07T05:50:08.530Z,1006.36
2017-05-07T05:51:02.558Z,1006.36
2017-05-07T05:51:57.515Z,1006.37
2017-05-07T05:52:51.258Z,1006.43
2017-05-07T05:53:44.946Z,1006.45
2017-05-07T05:54:45.022Z,1006.46
2017-05-07T05:55:38.869Z,1006.47
2017-05-07T05:56:33.815Z,1006.46
2017-05-07T05:57:33.706Z,1006.50
2017-05-07T05:58:22.696Z,1006.49
2017-05-07T05:59:21.910Z,1006.47
2017-05-07T06:00:15.870Z,1006.45
2017-05-07T06:01:04.136Z,1006.48
2017-05-07T06:01:53.027Z,1006.50
2017-05-07T06:02:47.467Z,1006.45
2017-05-07T06:03:40.946Z,1006.44
2017-05-07T06:04:36.224Z,1006.42
2017-05-07T06:05:30.325Z,1006.41
2017-05-07T06:06:18.838Z,1006.41
2017-05-07T06:07:12.463Z,1006.45
2017-05-07T06:08:06.363Z,1006.45
2017-05-07T06:08:55.750Z,1006.45
2017-05-07T06:09:43.831Z,1006.46
2017-05-07T06:10:32.380Z,1006.48
2017-05-07T06:11:25.834Z,1006.50
2017-05-07T06:12:31.810Z,1006.49
2017-05-07T06:13:20.914Z,1006.51
2017-05-07T06:14:14.350Z,1006.53
2017-05-07T06:15:08.318Z,1006.55
2017-05-07T06:15:57.239Z,1006.54
2017-05-07T06:16:50.760Z,1006.53
2017-05-07T06:17:44.876Z,1006.53
2017-05-07T06:18:39.746Z,1006.56
2017-05-07T06:19:27.298Z,1006.57
2017-05-07T06:20:22.532Z,1006.62
2017-05-07T06:21:09.754Z,1006.60
2017-05-07T06:21:58.727Z,1006.68
2017-05-07T06:22:58.252Z,1006.64
2017-05-07T06:23:47.397Z,1006.64
2017-05-07T06:24:40.727Z,1006.67
2017-05-07T06:25:28.658Z,1006.60
2017-05-07T06:26:23.642Z,1006.58
2017-05-07T06:27:17.263Z,1006.62
2017-05-07T06:28:12.148Z,1006.63
2017-05-07T06:29:05.919Z,1006.67
2017-05-07T06:29:54.678Z,1006.66
2017-05-07T06:30:54.146Z,1006.70
2017-05-07T06:31:43.292Z,1006.69
2017-05-07T06:32:37.662Z,1006.71
2017-05-07T06:33:25.455Z,1006.70
2017-05-07T06:34:14.142Z,1006.74
2017-05-07T06:35:13.718Z,1006.77
2017-05-07T06:35:56.682Z,1006.79
2017-05-07T06:36:50.152Z,1006.83
2017-05-07T06:37:33.184Z,1006.82
2017-05-07T06:38:26.879Z,1006.81
2017-05-07T06:39:21.717Z,1006.87
2017-05-07T06:40:15.199Z,1006.90
2017-05-07T06:41:15.105Z,1006.93
2017-05-07T06:42:09.325Z,1006.90
2017-05-07T06:43:09.114Z,1006.93
2017-05-07T06:44:03.579Z,1006.92
2017-05-07T06:44:58.428Z,1006.90
2017-05-07T06:45:46.538Z,1006.93
2017-05-07T06:46:40.106Z,1006.94
2017-05-07T06:47:40.027Z,1006.93
2017-05-07T06:48:34.051Z,1006.99
2017-05-07T06:49:23.079Z,1006.99
2017-05-07T06:50:11.513Z,1006.99
2017-05-07T06:51:06.053Z,1007.03
2017-05-07T06:52:05.541Z,1007.02
2017-05-07T06:52:53.602Z,1007.07
2017-05-07T06:53:47.556Z,1007.09
2017-05-07T06:54:30.461Z,1007.07
2017-05-07T06:55:19.005Z,1007.07
2017-05-07T06:56:12.531Z,1007.10
2017-05-07T06:57:06.650Z,1007.11
2017-05-07T06:58:00.511Z,1007.12
2017-05-07T06:58:55.499Z,1007.15
2017-05-07T06:59:54.966Z,1007.18
2017-05-07T07:00:48.937Z,1007.17
2017-05-07T07:01:37.850Z,1007.17
2017-05-07T07:02:31.422Z,1007.17
2017-05-07T07:03:26.397Z,1007.18
2017-05-07T07:04:31.913Z,1007.21
2017-05-07T07:05:27.208Z,1007.24
2017-05-07T07:06:21.412Z,1007.23
2017-05-07T07:07:08.953Z,1007.22
2017-05-07T07:07:57.916Z,1007.26
2017-05-07T07:08:52.462Z,1007.27
2017-05-07T07:09:47.114Z,1007.27
2017-05-07T07:10:46.599Z,1007.28
2017-05-07T07:11:34.863Z,1007.31
2017-05-07T07:12:28.426Z,1007.29
2017-05-07T07:13:16.823Z,1007.31
2017-05-07T07:14:10.466Z,1007.25
2017-05-07T07:15:10.624Z,1007.29
2017-05-07T07:16:04.319Z,1007.30
2017-05-07T07:16:58.471Z,1007.34
2017-05-07T07:17:53.237Z,1007.31
2017-05-07T07:18:47.778Z,1007.39
2017-05-07T07:19:47.294Z,1007.41
2017-05-07T07:20:41.252Z,1007.39
2017-05-07T07:21:36.274Z,1007.38
2017-05-07T07:22:30.763Z,1007.41
2017-05-07T07:23:24.267Z,1007.42
2017-05-07T07:24:18.267Z,1007.39
2017-05-07T07:25:12.575Z,1007.37
2017-05-07T07:26:12.157Z,1007.40
2017-05-07T07:27:06.119Z,1007.42
2017-05-07T07:28:00.089Z,1007.45
2017-05-07T07:28:54.071Z,1007.48
2017-05-07T07:29:54.036Z,1007.41
2017-05-07T07:30:42.021Z,1007.47
2017-05-07T07:31:42.277Z,1007.49
2017-05-07T07:32:36.931Z,1007.42
2017-05-07T07:33:31.460Z,1007.41
2017-05-07T07:34:24.993Z,1007.35
2017-05-07T07:35:12.930Z,1007.34
2017-05-07T07:36:06.945Z,1007.34
2017-05-07T07:37:00.944Z,1007.37
2017-05-07T07:37:55.028Z,1007.36
2017-05-07T07:38:43.856Z,1007.41
2017-05-07T07:39:31.780Z,1007.42
2017-05-07T07:40:20.340Z,1007.44
2017-05-07T07:41:13.867Z,1007.46
2017-05-07T07:42:07.819Z,1007.44
2017-05-07T07:42:56.091Z,1007.49
2017-05-07T07:43:44.746Z,1007.47
2017-05-07T07:44:38.725Z,1007.54
2017-05-07T07:45:32.316Z,1007.50
2017-05-07T07:46:20.238Z,1007.53
2017-05-07T07:47:14.199Z,1007.55
2017-05-07T07:48:03.777Z,1007.57
2017-05-07T07:48:58.140Z,1007.58
2017-05-07T07:49:46.241Z,1007.61
2017-05-07T07:50:39.784Z,1007.60
2017-05-07T07:51:34.775Z,1007.62
2017-05-07T07:52:29.254Z,1007.61
2017-05-07T07:53:23.245Z,1007.61
2017-05-07T07:54:22.779Z,1007.64
2017-05-07T07:55:16.818Z,1007.65
2017-05-07T07:56:04.707Z,1007.64
2017-05-07T07:56:53.699Z,1007.65
2017-05-07T07:57:42.616Z,1007.68
2017-05-07T07:58:42.004Z,1007.66
2017-05-07T07:59:30.738Z,1007.69
2017-05-07T08:00:25.230Z,1007.75
2017-05-07T08:01:18.752Z,1007.70
2017-05-07T08:02:12.697Z,1007.77
2017-05-07T08:03:06.715Z,1007.74
2017-05-07T08:03:55.041Z,1007.77
2017-05-07T08:04:48.910Z,1007.79
2017-05-07T08:05:31.576Z,1007.80
2017-05-07T08:06:19.447Z,1007.82
2017-05-07T08:07:19.472Z,1007.76
2017-05-07T08:08:13.391Z,1007.79
2017-05-07T08:09:08.923Z,1007.78
2017-05-07T08:10:07.908Z,1007.81
2017-05-07T08:11:01.854Z,1007.79
2017-05-07T08:11:55.808Z,1007.77
2017-05-07T08:12:49.792Z,1007.79
2017-05-07T08:13:49.741Z,1007.83
2017-05-07T08:14:44.989Z,1007.83
2017-05-07T08:15:44.279Z,1007.90
2017-05-07T08:16:37.920Z,1007.87
2017-05-07T08:17:25.890Z,1007.97
2017-05-07T08:18:13.845Z,1007.93
2017-05-07T08:19:02.829Z,1007.94
2017-05-07T08:19:51.645Z,1007.95
2017-05-07T08:20:50.875Z,1007.97
2017-05-07T08:21:51.178Z,1007.97
2017-05-07T08:22:44.831Z,1007.99
2017-05-07T08:23:45.083Z,1007.97
2017-05-07T08:24:40.167Z,1007.98
2017-05-07T08:25:34.414Z,1008.00
2017-05-07T08:26:22.827Z,1008.01
2017-05-07T08:27:10.364Z,1007.98
2017-05-07T08:28:10.625Z,1008.04
2017-05-07T08:28:58.754Z,1008.03
2017-05-07T08:29:53.537Z,1008.00
2017-05-07T08:30:41.179Z,1007.98
2017-05-07T08:31:41.751Z,1008.00
2017-05-07T08:32:41.247Z,1008.04
2017-05-07T08:33:35.247Z,1008.08
2017-05-07T08:34:24.235Z,1008.07
2017-05-07T08:35:17.743Z,1008.04
2017-05-07T08:36:12.749Z,1008.03
2017-05-07T08:37:01.268Z,1008.04
2017-05-07T08:37:49.880Z,1008.06
2017-05-07T08:38:43.743Z,1008.13
2017-05-07T08:39:26.332Z,1008.18
2017-05-07T08:40:19.813Z,1008.16
2017-05-07T08:41:19.812Z,1008.21
2017-05-07T08:42:13.778Z,1008.16
2017-05-07T08:43:07.761Z,1008.15
2017-05-07T08:44:01.741Z,1008.13
2017-05-07T08:44:55.827Z,1008.18
2017-05-07T08:45:49.653Z,1008.07
2017-05-07T08:46:43.637Z,1008.08
2017-05-07T08:47:32.622Z,1008.08
2017-05-07T08:48:26.301Z,1008.09
2017-05-07T08:49:14.124Z,1008.11
2017-05-07T08:50:08.060Z,1008.19
2017-05-07T08:51:03.215Z,1008.23
2017-05-07T08:51:50.560Z,1008.23
2017-05-07T08:52:44.570Z,1008.18
2017-05-07T08:53:33.511Z,1008.20
2017-05-07T08:54:27.040Z,1008.21
2017-05-07T08:55:21.433Z,1008.19
2017-05-07T08:56:09.221Z,1008.16
2017-05-07T08:57:03.043Z,1008.15
2017-05-07T08:57:51.941Z,1008.23
2017-05-07T08:58:46.862Z,1008.24
2017-05-07T08:59:40.515Z,1008.16
2017-05-07T09:00:34.007Z,1008.19
2017-05-07T09:01:28.927Z,1008.25
2017-05-07T09:02:22.528Z,1008.28
2017-05-07T09:03:23.434Z,1008.35
2017-05-07T09:04:17.046Z,1008.31
2017-05-07T09:05:17.064Z,1008.31
2017-05-07T09:06:10.917Z,1008.29
2017-05-07T09:07:04.923Z,1008.35
2017-05-07T09:07:53.199Z,1008.36
2017-05-07T09:08:47.264Z,1008.34
2017-05-07T09:09:35.803Z,1008.31
2017-05-07T09:10:35.353Z,1008.37
2017-05-07T09:11:29.336Z,1008.32
2017-05-07T09:12:23.707Z,1008.31
2017-05-07T09:13:11.352Z,1008.38
2017-05-07T09:14:06.711Z,1008.39
2017-05-07T09:14:54.888Z,1008.40
2017-05-07T09:15:42.320Z,1008.41
2017-05-07T09:16:30.547Z,1008.45
2017-05-07T09:17:18.261Z,1008.48
2017-05-07T09:18:07.678Z,1008.45
2017-05-07T09:19:00.749Z,1008.48
2017-05-07T09:20:00.741Z,1008.44
2017-05-07T09:20:55.755Z,1008.45
2017-05-07T09:21:50.248Z,1008.41
2017-05-07T09:22:49.775Z,1008.46
2017-05-07T09:23:38.775Z,1008.52
2017-05-07T09:24:32.270Z,1008.61
2017-05-07T09:25:26.238Z,1008.63
2017-05-07T09:26:20.202Z,1008.64
2017-05-07T09:27:09.214Z,1008.62
2017-05-07T09:28:02.751Z,1008.61
2017-05-07T09:28:51.701Z,1008.61
2017-05-07T09:29:45.229Z,1008.67
2017-05-07T09:30:34.159Z,1008.71
2017-05-07T09:31:34.089Z,1008.64
2017-05-07T09:32:21.730Z,1008.65
2017-05-07T09:33:10.713Z,1008.63
2017-05-07T09:34:04.211Z,1008.66
2017-05-07T09:34:58.229Z,1008.65
2017-05-07T09:35:52.336Z,1008.63
2017-05-07T09:36:52.111Z,1008.67
2017-05-07T09:37:41.329Z,1008.69
2017-05-07T09:38:34.632Z,1008.70
2017-05-07T09:39:29.661Z,1008.70
2017-05-07T09:40:29.279Z,1008.68
2017-05-07T09:41:23.103Z,1008.62
2017-05-07T09:42:23.110Z,1008.65
2017-05-07T09:43:11.166Z,1008.63
2017-05-07T09:44:06.033Z,1008.67
2017-05-07T09:45:00.056Z,1008.68
2017-05-07T09:45:42.832Z,1008.68
2017-05-07T09:46:36.094Z,1008.62
2017-05-07T09:47:36.064Z,1008.62
2017-05-07T09:48:30.021Z,1008.59
2017-05-07T09:49:24.057Z,1008.66
2017-05-07T09:50:17.931Z,1008.55
2017-05-07T09:51:11.972Z,1008.58
2017-05-07T09:52:05.960Z,1008.50
2017-05-07T09:53:06.922Z,1008.71
2017-05-07T09:54:06.428Z,1008.75
2017-05-07T09:55:00.691Z,1008.67
2017-05-07T09:55:43.349Z,1008.75
2017-05-07T09:56:30.923Z,1008.53
2017-05-07T09:57:19.903Z,1008.47
2017-05-07T09:58:13.445Z,1008.45
2017-05-07T09:59:02.421Z,1008.44
2017-05-07T09:59:51.230Z,1008.52
2017-05-07T10:00:39.523Z,1008.65
2017-05-07T10:01:33.053Z,1008.72
2017-05-07T10:02:28.147Z,1008.72
2017-05-07T10:03:21.559Z,1008.67
2017-05-07T10:04:15.797Z,1008.71
2017-05-07T10:05:03.818Z,1008.76
2017-05-07T10:05:58.478Z,1008.71
2017-05-07T10:06:46.170Z,1008.70
2017-05-07T10:07:35.011Z,1008.66
2017-05-07T10:08:29.535Z,1008.68
2017-05-07T10:09:24.054Z,1008.82
2017-05-07T10:10:17.591Z,1008.88
2017-05-07T10:11:11.608Z,1008.97
2017-05-07T10:11:59.590Z,1008.77
2017-05-07T10:12:48.942Z,1008.81
2017-05-07T10:13:43.115Z,1008.76
2017-05-07T10:14:37.630Z,1008.93
2017-05-07T10:15:37.343Z,1008.68
2017-05-07T10:16:31.302Z,1008.63
2017-05-07T10:17:31.344Z,1008.68
2017-05-07T10:18:20.444Z,1008.71
2017-05-07T10:19:19.630Z,1008.72
2017-05-07T10:20:13.620Z,1008.91
2017-05-07T10:21:02.584Z,1008.95
2017-05-07T10:21:56.366Z,1008.69
2017-05-07T10:22:45.139Z,1008.89
2017-05-07T10:23:45.926Z,1008.75
2017-05-07T10:24:40.533Z,1008.67
2017-05-07T10:25:28.755Z,1008.70
2017-05-07T10:26:23.321Z,1008.62
2017-05-07T10:27:24.274Z,1008.64
2017-05-07T10:28:17.396Z,1008.69
2017-05-07T10:29:11.943Z,1008.73
2017-05-07T10:30:00.588Z,1008.79
2017-05-07T10:30:48.965Z,1008.67
2017-05-07T10:31:37.766Z,1008.65
2017-05-07T10:32:30.982Z,1008.74
2017-05-07T10:33:26.334Z,1008.76
2017-05-07T10:34:19.850Z,1008.82
2017-05-07T10:35:14.476Z,1008.81
2017-05-07T10:36:14.214Z,1008.83
2017-05-07T10:37:03.310Z,1008.77
2017-05-07T10:37:51.873Z,1008.76
2017-05-07T10:38:45.374Z,1008.65
2017-05-07T10:39:45.378Z,1008.80
2017-05-07T10:40:34.431Z,1008.70
2017-05-07T10:41:21.927Z,1008.67
2017-05-07T10:42:10.916Z,1008.70
2017-05-07T10:43:05.413Z,1008.67
2017-05-07T10:43:52.968Z,1008.64
2017-05-07T10:44:47.920Z,1008.65
2017-05-07T10:45:36.469Z,1008.63
2017-05-07T10:46:24.980Z,1008.65
2017-05-07T10:47:24.567Z,1008.70
2017-05-07T10:48:13.591Z,1008.62
2017-05-07T10:49:01.261Z,1008.67
2017-05-07T10:49:50.042Z,1008.72
2017-05-07T10:50:44.627Z,1008.69
2017-05-07T10:51:38.218Z,1008.68
2017-05-07T10:52:38.101Z,1008.66
2017-05-07T10:53:32.005Z,1008.70
2017-05-07T10:54:27.047Z,1008.76
2017-05-07T10:55:20.426Z,1008.84
2017-05-07T10:56:14.373Z,1008.93